Time;durP1;ratioP1;P1;durP2;ratioP2;P2;SDS_P1;SDS_P2;PMS_P1;PMS_P2;Temp;Humidity;BMP_temperature;BMP_pressure;BME280_temperature;BME280_humidity;BME280_pressure;Samples;Min_cycle;Max_cycle;Signal;HPM_P1;HPM_P2
2022/10/27 00:02:26;;;;;;;32.13;13.50;;;9.70;99.90;;;;;;6287509;22;20037;-86
2022/10/27 00:05:14;;;;;;;27.33;12.18;;;9.70;99.90;;;;;;6311058;22;20034;-86
2022/10/27 00:08:08;;;;;;;28.42;14.07;;;9.70;99.90;;;;;;6308562;22;20031;-86
2022/10/27 00:10:57;;;;;;;30.30;14.55;;;9.60;99.90;;;;;;6309445;22;20384;-88
2022/10/27 00:13:45;;;;;;;30.33;15.23;;;9.60;99.90;;;;;;6288092;22;20066;-86
2022/10/27 00:16:32;;;;;;;32.70;15.13;;;9.60;99.90;;;;;;6308128;22;20038;-87
2022/10/27 00:19:20;;;;;;;34.28;16.55;;;9.60;99.90;;;;;;6286215;22;20029;-87
2022/10/27 00:22:09;;;;;;;26.60;15.38;;;9.60;99.90;;;;;;6311014;22;20027;-86
2022/10/27 00:24:57;;;;;;;34.35;15.23;;;9.60;99.90;;;;;;6287923;22;20115;-87
2022/10/27 00:27:44;;;;;;;30.15;16.30;;;9.60;99.90;;;;;;6288576;22;20027;-88
2022/10/27 00:30:31;;;;;;;36.97;17.25;;;9.60;99.90;;;;;;6306691;22;20035;-87
2022/10/27 00:33:18;;;;;;;35.00;17.73;;;9.60;99.90;;;;;;6307469;22;20323;-86
2022/10/27 00:36:10;;;;;;;40.28;19.10;;;9.70;99.90;;;;;;6308072;22;20113;-87
2022/10/27 00:39:00;;;;;;;42.15;19.52;;;9.70;99.90;;;;;;6310805;22;20441;-87
2022/10/27 00:41:48;;;;;;;43.17;21.55;;;9.70;99.90;;;;;;6307915;22;20023;-86
2022/10/27 00:44:41;;;;;;;41.15;21.33;;;10.00;99.90;;;;;;6308028;22;20027;-87
2022/10/27 00:47:34;;;;;;;55.47;22.80;;;10.50;99.90;;;;;;6310714;22;20023;-87
2022/10/27 00:50:24;;;;;;;50.75;22.17;;;10.60;99.90;;;;;;6309763;22;20030;-87
2022/10/27 00:53:11;;;;;;;51.15;22.77;;;10.50;99.90;;;;;;6306539;22;20034;-87
2022/10/27 00:56:02;;;;;;;49.92;21.85;;;10.40;99.90;;;;;;6308007;22;20023;-88
2022/10/27 00:58:50;;;;;;;45.58;20.98;;;10.30;99.90;;;;;;6285241;22;20019;-87
2022/10/27 01:01:37;;;;;;;48.10;21.80;;;10.30;99.90;;;;;;6308968;22;20023;-88
2022/10/27 01:04:49;;;;;;;41.65;20.50;;;10.40;99.90;;;;;;6307978;22;20380;-87
2022/10/27 01:07:37;;;;;;;49.78;21.40;;;10.50;99.90;;;;;;6310968;22;20387;-87
2022/10/27 01:10:25;;;;;;;51.15;21.10;;;10.40;99.90;;;;;;6286072;22;20094;-87
2022/10/27 01:13:12;;;;;;;42.15;20.02;;;10.20;99.90;;;;;;6314191;22;20434;-87
2022/10/27 01:16:33;;;;;;;44.55;20.00;;;10.10;99.90;;;;;;6288986;22;20023;-87
2022/10/27 01:19:36;;;;;;;50.80;19.45;;;10.00;99.90;;;;;;6311232;22;20094;-87
2022/10/27 01:22:43;;;;;;;35.90;18.35;;;9.90;99.90;;;;;;6308543;22;20375;-88
2022/10/27 01:25:59;;;;;;;39.63;19.02;;;9.80;99.90;;;;;;6307832;22;20104;-87
2022/10/27 01:29:10;;;;;;;38.97;18.52;;;9.80;99.90;;;;;;6310921;22;20111;-86
2022/10/27 01:32:35;;;;;;;57.05;20.95;;;9.90;99.90;;;;;;6254687;22;20094;-86
2022/10/27 01:35:27;;;;;;;48.55;22.10;;;10.00;99.90;;;;;;6279293;22;20024;-87
2022/10/27 01:38:32;;;;;;;45.70;19.98;;;10.10;99.90;;;;;;6282809;22;20023;-87
2022/10/27 01:41:29;;;;;;;48.90;21.08;;;10.10;99.90;;;;;;6281009;22;20442;-86
2022/10/27 01:44:25;;;;;;;52.63;22.40;;;9.90;99.90;;;;;;6279162;22;20437;-86
2022/10/27 01:47:15;;;;;;;51.92;24.63;;;9.80;99.90;;;;;;6277745;22;20106;-87
2022/10/27 01:50:06;;;;;;;55.05;23.40;;;9.80;99.90;;;;;;6277536;22;20030;-86
2022/10/27 01:52:53;;;;;;;49.70;23.90;;;9.80;99.90;;;;;;6277837;22;20016;-87
2022/10/27 01:55:47;;;;;;;58.45;24.52;;;9.80;99.90;;;;;;6280968;22;20161;-87
2022/10/27 01:58:37;;;;;;;51.72;22.90;;;9.80;99.90;;;;;;6260487;22;20098;-86
2022/10/27 02:01:42;;;;;;;48.88;22.80;;;9.70;99.90;;;;;;6280504;22;20019;-86
2022/10/27 02:04:38;;;;;;;43.53;22.05;;;9.80;99.90;;;;;;6276920;22;20041;-87
2022/10/27 02:07:44;;;;;;;47.03;24.25;;;9.90;99.90;;;;;;6277248;22;20039;-88
2022/10/27 02:11:09;;;;;;;59.20;24.40;;;9.90;99.90;;;;;;6275419;22;20042;-86
2022/10/27 02:14:01;;;;;;;46.72;22.45;;;9.80;99.90;;;;;;6276072;22;20042;-88
2022/10/27 02:16:54;;;;;;;49.03;22.23;;;9.60;99.90;;;;;;6276107;22;20026;-88
2022/10/27 02:19:46;;;;;;;49.72;23.35;;;9.50;99.90;;;;;;6275408;22;20034;-88
2022/10/27 02:22:35;;;;;;;71.55;24.38;;;9.50;99.90;;;;;;6277265;22;20038;-88
2022/10/27 02:25:30;;;;;;;55.40;22.88;;;9.50;99.90;;;;;;6276283;22;20031;-88
2022/10/27 02:28:25;;;;;;;54.17;21.58;;;9.40;99.90;;;;;;6277460;22;20441;-86
2022/10/27 02:31:15;;;;;;;58.50;22.75;;;9.30;99.90;;;;;;6304015;22;20091;-88
2022/10/27 02:34:06;;;;;;;45.45;21.38;;;9.30;99.90;;;;;;6310331;22;20030;-86
2022/10/27 02:36:56;;;;;;;46.42;21.45;;;9.20;99.90;;;;;;6310405;22;20034;-88
2022/10/27 02:39:43;;;;;;;41.05;21.13;;;9.10;99.90;;;;;;6310122;22;20034;-88
2022/10/27 02:42:33;;;;;;;43.00;21.48;;;9.00;99.90;;;;;;6308010;22;20334;-89
2022/10/27 02:45:22;;;;;;;38.65;21.00;;;9.10;99.90;;;;;;6310637;22;20110;-88
2022/10/27 02:48:11;;;;;;;40.47;20.70;;;9.00;99.90;;;;;;6310520;22;20027;-88
2022/10/27 02:50:58;;;;;;;42.17;20.08;;;8.90;99.90;;;;;;6310277;22;20027;-89
2022/10/27 02:53:46;;;;;;;45.75;22.02;;;8.80;99.90;;;;;;6308045;22;20047;-88
2022/10/27 02:56:33;;;;;;;48.88;21.70;;;8.80;99.90;;;;;;6308636;22;20046;-89
2022/10/27 02:59:20;;;;;;;44.67;21.08;;;8.80;99.90;;;;;;6306983;22;20057;-89
2022/10/27 03:02:07;;;;;;;48.95;21.38;;;8.70;99.90;;;;;;6308187;22;20026;-87
2022/10/27 03:04:55;;;;;;;47.03;21.73;;;8.70;99.90;;;;;;6310749;22;20331;-86
2022/10/27 03:07:45;;;;;;;47.92;22.30;;;8.70;99.90;;;;;;6316973;22;20038;-86
2022/10/27 03:10:32;;;;;;;39.28;20.05;;;8.70;99.90;;;;;;6321583;22;20067;-87
2022/10/27 03:13:19;;;;;;;44.75;21.13;;;8.70;99.90;;;;;;6295518;22;20031;-89
2022/10/27 03:16:08;;;;;;;49.33;21.25;;;8.70;99.90;;;;;;6316943;22;20430;-86
2022/10/27 03:18:56;;;;;;;42.03;20.85;;;8.70;99.90;;;;;;6316083;22;20027;-87
2022/10/27 03:21:43;;;;;;;45.65;19.83;;;8.70;99.90;;;;;;6310348;22;20045;-86
2022/10/27 03:24:30;;;;;;;46.30;18.45;;;8.60;99.90;;;;;;6308743;22;20039;-88
2022/10/27 03:27:18;;;;;;;42.83;19.95;;;8.50;99.90;;;;;;6312216;22;20065;-87
2022/10/27 03:30:08;;;;;;;42.78;19.65;;;8.40;99.90;;;;;;6309863;22;20023;-88
2022/10/27 03:32:56;;;;;;;48.50;21.88;;;8.30;99.90;;;;;;6312682;22;20019;-87
2022/10/27 03:35:43;;;;;;;50.70;23.88;;;8.20;99.90;;;;;;6309520;22;20323;-86
2022/10/27 03:38:30;;;;;;;53.85;24.02;;;8.30;99.90;;;;;;6308545;22;20030;-90
2022/10/27 03:41:20;;;;;;;52.58;23.23;;;8.30;99.90;;;;;;6309601;22;20122;-87
2022/10/27 03:44:07;;;;;;;41.72;20.38;;;8.40;99.90;;;;;;6291680;22;20038;-87
2022/10/27 03:46:54;;;;;;;50.22;22.65;;;8.50;99.90;;;;;;6311466;22;20020;-87
2022/10/27 03:49:41;;;;;;;55.92;24.83;;;8.40;99.90;;;;;;6307934;22;20057;-88
2022/10/27 03:52:30;;;;;;;62.10;25.45;;;8.30;99.90;;;;;;6312808;22;20027;-89
2022/10/27 03:55:21;;;;;;;64.18;26.80;;;8.30;99.90;;;;;;6316699;22;20030;-88
2022/10/27 03:58:15;;;;;;;54.67;27.95;;;8.30;99.90;;;;;;6317286;22;20051;-89
2022/10/27 04:01:04;;;;;;;62.92;28.38;;;8.20;99.90;;;;;;6292918;22;20019;-88
2022/10/27 04:03:54;;;;;;;56.22;26.80;;;8.20;99.90;;;;;;6312381;22;20106;-89
2022/10/27 04:06:41;;;;;;;65.70;28.65;;;8.20;99.90;;;;;;6312081;22;20027;-89
2022/10/27 04:09:28;;;;;;;60.55;26.85;;;8.20;99.90;;;;;;6307602;22;20023;-87
2022/10/27 04:12:16;;;;;;;57.45;26.35;;;8.10;99.90;;;;;;6309612;22;20042;-89
2022/10/27 04:15:04;;;;;;;63.17;25.13;;;8.20;99.90;;;;;;6309899;22;20065;-87
2022/10/27 04:17:55;;;;;;;63.58;25.27;;;8.20;99.90;;;;;;6312642;22;20023;-88
2022/10/27 04:20:42;;;;;;;45.88;21.35;;;8.20;99.90;;;;;;6311698;22;20019;-87
2022/10/27 04:23:30;;;;;;;66.50;27.90;;;8.10;99.90;;;;;;6308599;22;20024;-86
2022/10/27 04:26:17;;;;;;;53.40;26.17;;;8.10;99.90;;;;;;6308681;22;20027;-86
2022/10/27 04:29:04;;;;;;;52.85;26.27;;;8.00;99.90;;;;;;6288836;22;20362;-85
2022/10/27 04:31:52;;;;;;;64.70;30.88;;;8.20;99.90;;;;;;6308768;22;20106;-85
2022/10/27 04:34:39;;;;;;;55.88;28.38;;;8.40;99.90;;;;;;6309111;22;20023;-86
2022/10/27 04:37:28;;;;;;;53.95;30.65;;;8.60;99.90;;;;;;6291303;22;20098;-87
2022/10/27 04:40:16;;;;;;;55.33;29.42;;;8.80;99.90;;;;;;6288802;22;20055;-87
2022/10/27 04:43:03;;;;;;;60.40;30.48;;;8.90;99.90;;;;;;6289042;22;20027;-87
2022/10/27 04:45:53;;;;;;;59.42;28.83;;;8.90;99.90;;;;;;6308357;22;20312;-87
2022/10/27 04:48:40;;;;;;;59.72;28.52;;;8.70;99.90;;;;;;6288324;22;20027;-87
2022/10/27 04:51:27;;;;;;;59.60;30.00;;;8.70;99.90;;;;;;6308317;22;20452;-87
2022/10/27 04:54:14;;;;;;;56.55;28.65;;;8.80;99.90;;;;;;6286155;22;20099;-88
2022/10/27 04:57:01;;;;;;;69.00;30.08;;;8.80;99.90;;;;;;6309636;22;20028;-88
2022/10/27 04:59:49;;;;;;;69.25;30.45;;;8.80;99.90;;;;;;6308666;22;20046;-89
2022/10/27 05:02:36;;;;;;;63.42;28.30;;;8.70;99.90;;;;;;6287997;22;20030;-88
2022/10/27 05:05:27;;;;;;;70.43;28.65;;;8.60;99.90;;;;;;6310822;22;20057;-90
2022/10/27 05:08:14;;;;;;;69.60;31.25;;;8.70;99.90;;;;;;6291511;22;20026;-89
2022/10/27 05:11:01;;;;;;;79.57;32.78;;;8.60;99.90;;;;;;6292922;22;20034;-89
2022/10/27 05:13:50;;;;;;;66.72;31.65;;;8.70;99.90;;;;;;6310202;22;20100;-87
2022/10/27 05:16:37;;;;;;;75.28;33.33;;;8.80;99.90;;;;;;6309853;22;20317;-88
2022/10/27 05:19:24;;;;;;;56.92;27.98;;;8.90;99.90;;;;;;6309793;22;20438;-90
2022/10/27 05:22:11;;;;;;;60.47;27.70;;;8.90;99.90;;;;;;6287021;22;20023;-90
2022/10/27 05:24:58;;;;;;;62.47;26.48;;;8.70;99.90;;;;;;6305878;22;20059;-89
2022/10/27 05:27:45;;;;;;;57.67;26.67;;;8.50;99.90;;;;;;6308399;22;20124;-87
2022/10/27 05:30:33;;;;;;;70.75;30.73;;;8.40;99.90;;;;;;6308807;22;20019;-88
2022/10/27 05:33:22;;;;;;;71.25;33.15;;;8.40;99.90;;;;;;6290127;22;20023;-88
2022/10/27 05:36:10;;;;;;;63.33;32.53;;;8.60;99.90;;;;;;6312625;22;20018;-90
2022/10/27 05:38:57;;;;;;;76.10;36.72;;;9.00;99.90;;;;;;6290400;22;20027;-90
2022/10/27 05:41:45;;;;;;;91.57;37.97;;;9.10;99.90;;;;;;6311311;22;20029;-87
2022/10/27 05:44:33;;;;;;;81.03;36.13;;;9.30;99.90;;;;;;6284432;22;20050;-85
2022/10/27 05:47:20;;;;;;;75.35;34.42;;;9.30;99.90;;;;;;6306422;22;20026;-85
2022/10/27 05:50:08;;;;;;;64.78;32.38;;;9.30;99.90;;;;;;6306848;22;20098;-86
2022/10/27 05:52:55;;;;;;;70.30;31.50;;;9.10;99.90;;;;;;6309529;22;20023;-86
2022/10/27 05:55:45;;;;;;;75.55;33.00;;;9.00;99.90;;;;;;6309837;22;20049;-86
2022/10/27 05:58:34;;;;;;;65.85;30.48;;;8.90;99.90;;;;;;6310660;22;20334;-87
2022/10/27 06:01:22;;;;;;;64.70;30.63;;;8.70;99.90;;;;;;6308813;22;20323;-86
2022/10/27 06:04:09;;;;;;;57.58;27.85;;;8.60;99.90;;;;;;6289891;22;20030;-86
2022/10/27 06:06:58;;;;;;;67.28;30.92;;;8.60;99.90;;;;;;6309735;22;20023;-86
2022/10/27 06:09:46;;;;;;;74.68;31.17;;;8.50;99.90;;;;;;6309018;22;20031;-87
2022/10/27 06:12:33;;;;;;;61.53;29.25;;;8.50;99.90;;;;;;6286508;22;20027;-87
2022/10/27 06:15:20;;;;;;;56.95;29.75;;;8.50;99.90;;;;;;6305616;22;20019;-85
2022/10/27 06:18:12;;;;;;;60.75;28.90;;;8.50;99.90;;;;;;6284328;22;20094;-85
2022/10/27 06:20:59;;;;;;;65.05;29.50;;;8.40;99.90;;;;;;6307272;22;20098;-86
2022/10/27 06:23:49;;;;;;;57.13;28.75;;;8.30;99.90;;;;;;6307345;22;20031;-85
2022/10/27 06:26:39;;;;;;;76.68;33.38;;;8.20;99.90;;;;;;6309084;22;20098;-85
2022/10/27 06:29:26;;;;;;;65.30;30.83;;;8.30;99.90;;;;;;6309164;22;20077;-86
2022/10/27 06:32:15;;;;;;;79.93;35.28;;;8.50;99.90;;;;;;6284459;22;20126;-85
2022/10/27 06:35:05;;;;;;;77.03;37.03;;;8.70;99.90;;;;;;6284308;22;20328;-86
2022/10/27 06:37:53;;;;;;;77.03;38.22;;;8.80;99.90;;;;;;6282957;22;20027;-85
2022/10/27 06:40:42;;;;;;;86.25;38.65;;;9.00;99.90;;;;;;6309475;22;20027;-84
2022/10/27 06:43:32;;;;;;;91.85;39.95;;;9.40;99.90;;;;;;6286693;22;20027;-86
2022/10/27 06:46:22;;;;;;;85.72;38.05;;;9.60;99.90;;;;;;6286489;22;20019;-84
2022/10/27 06:49:09;;;;;;;83.63;36.20;;;9.70;99.90;;;;;;6287051;22;20391;-84
2022/10/27 06:52:01;;;;;;;76.00;34.85;;;10.00;99.90;;;;;;6307251;22;20019;-85
2022/10/27 06:54:49;;;;;;;79.38;35.67;;;10.20;99.90;;;;;;6306750;22;20306;-84
2022/10/27 06:57:42;;;;;;;81.95;36.47;;;10.40;99.90;;;;;;6288231;22;20103;-85
2022/10/27 07:00:30;;;;;;;85.75;37.38;;;10.50;99.90;;;;;;6308999;22;20030;-85
2022/10/27 07:03:17;;;;;;;76.43;35.22;;;10.70;99.90;;;;;;6286190;22;20023;-84
2022/10/27 07:06:05;;;;;;;81.07;36.83;;;10.90;99.90;;;;;;6284401;22;20024;-85
2022/10/27 07:08:55;;;;;;;73.68;34.85;;;11.10;99.90;;;;;;6309281;22;20038;-85
2022/10/27 07:11:42;;;;;;;60.10;32.75;;;11.20;99.90;;;;;;6287272;22;20023;-84
2022/10/27 07:14:30;;;;;;;68.72;33.83;;;11.10;99.90;;;;;;6306593;22;20023;-84
2022/10/27 07:17:17;;;;;;;64.85;33.28;;;11.00;99.90;;;;;;6306671;22;20104;-85
2022/10/27 07:20:05;;;;;;;64.53;32.72;;;11.10;99.90;;;;;;6285039;22;20030;-84
2022/10/27 07:22:57;;;;;;;59.08;29.00;;;11.30;99.90;;;;;;6311273;22;20027;-85
2022/10/27 07:25:48;;;;;;;59.60;27.73;;;11.60;99.90;;;;;;6287797;22;20023;-84
2022/10/27 07:28:36;;;;;;;55.03;27.38;;;12.00;99.90;;;;;;6309136;22;20081;-84
2022/10/27 07:31:23;;;;;;;46.28;25.08;;;12.30;99.90;;;;;;6308481;22;20057;-83
2022/10/27 07:34:11;;;;;;;45.63;24.00;;;12.20;99.90;;;;;;6306630;22;20038;-85
2022/10/27 07:36:59;;;;;;;48.85;24.52;;;12.10;99.90;;;;;;6311012;22;20026;-85
2022/10/27 07:39:47;;;;;;;48.10;22.05;;;12.40;99.90;;;;;;6288607;22;20030;-83
2022/10/27 07:42:41;;;;;;;46.88;22.15;;;12.70;99.90;;;;;;6288292;22;20161;-83
2022/10/27 07:45:29;;;;;;;35.97;20.00;;;13.00;99.90;;;;;;6290138;22;20433;-83
2022/10/27 07:48:19;;;;;;;28.27;16.23;;;13.10;99.90;;;;;;6309341;22;20093;-83
2022/10/27 07:51:06;;;;;;;32.47;15.35;;;13.10;99.90;;;;;;6288667;22;20034;-85
2022/10/27 07:53:56;;;;;;;23.40;13.98;;;13.00;99.90;;;;;;6287466;22;20030;-83
2022/10/27 07:56:50;;;;;;;29.05;12.77;;;13.20;99.90;;;;;;6288243;22;20398;-83
2022/10/27 07:59:37;;;;;;;20.02;10.13;;;13.30;99.90;;;;;;6287449;22;20130;-83
2022/10/27 08:02:24;;;;;;;12.85;8.38;;;13.70;99.90;;;;;;6307652;22;20023;-85
2022/10/27 08:05:16;;;;;;;17.92;8.30;;;13.80;99.90;;;;;;6309860;22;20081;-83
2022/10/27 08:08:05;;;;;;;16.47;6.67;;;14.00;99.90;;;;;;6288142;22;20449;-87
2022/10/27 08:10:53;;;;;;;16.23;6.65;;;14.10;99.90;;;;;;6309219;22;20031;-87
2022/10/27 08:13:43;;;;;;;16.65;8.45;;;14.30;99.90;;;;;;6308752;22;20027;-86
2022/10/27 08:16:35;;;;;;;18.23;8.80;;;14.70;99.90;;;;;;6308957;22;20049;-86
2022/10/27 08:19:22;;;;;;;14.13;6.05;;;15.20;99.90;;;;;;6287029;22;20051;-85
2022/10/27 08:22:11;;;;;;;12.98;5.07;;;15.60;99.90;;;;;;6306916;22;20053;-84
2022/10/27 08:25:00;;;;;;;16.38;4.82;;;15.90;99.90;;;;;;6287746;22;20061;-87
2022/10/27 08:27:52;;;;;;;11.95;4.15;;;16.10;99.90;;;;;;6288985;22;20104;-86
2022/10/27 08:30:42;;;;;;;11.68;4.57;;;16.10;99.90;;;;;;6308834;22;20023;-86
2022/10/27 08:33:40;;;;;;;11.10;4.07;;;16.00;99.90;;;;;;6289211;22;20326;-84
2022/10/27 08:36:28;;;;;;;16.13;4.40;;;16.20;99.90;;;;;;6311265;22;20094;-85
2022/10/27 08:39:15;;;;;;;13.75;4.10;;;16.30;1.00;;;;;;6315132;22;20027;-86
2022/10/27 08:42:04;;;;;;;11.45;3.90;;;16.60;99.90;;;;;;6311326;22;20031;-84
2022/10/27 08:44:58;;;;;;;12.60;3.95;;;16.70;99.90;;;;;;6292218;22;20027;-86
2022/10/27 08:47:46;;;;;;;11.25;3.92;;;17.00;2.50;;;;;;6312659;22;20058;-84
2022/10/27 08:50:43;;;;;;;8.80;3.90;;;17.20;1.00;;;;;;6310767;22;20480;-86
2022/10/27 08:53:37;;;;;;;13.77;3.50;;;17.70;1.00;;;;;;6310549;22;20023;-86
2022/10/27 08:56:29;;;;;;;10.05;3.15;;;18.30;1.00;;;;;;6311104;22;20084;-86
2022/10/27 08:59:22;;;;;;;;;;;18.70;99.90;;;;;;6311684;22;20019;-84
2022/10/27 09:02:33;;;;;;;12.53;3.90;;;18.90;99.90;;;;;;6287764;22;19976;-84
2022/10/27 09:05:39;;;;;;;10.18;3.47;;;18.90;99.90;;;;;;6288397;22;20061;-85
2022/10/27 09:08:51;;;;;;;9.02;3.63;;;19.20;99.90;;;;;;6309311;22;20019;-85
2022/10/27 09:11:55;;;;;;;6.82;3.25;;;19.30;99.90;;;;;;6309874;22;20051;-86
2022/10/27 09:15:15;;;;;;;8.13;3.28;;;18.90;99.90;;;;;;6307125;22;20151;-85
2022/10/27 09:18:11;;;;;;;9.73;3.28;;;18.80;99.90;;;;;;6251228;22;20023;-86
2022/10/27 09:21:04;;;;;;;11.55;3.13;;;18.90;99.90;;;;;;6308427;22;20065;-85
2022/10/27 09:24:02;;;;;;;;;;;19.30;99.90;;;;;;6307665;22;20029;-87
2022/10/27 09:26:53;;;;;;;9.48;2.83;;;19.80;99.90;;;;;;6288044;22;19918;-86
2022/10/27 09:29:41;;;;;;;11.48;2.90;;;20.10;99.90;;;;;;6307032;22;20026;-89
2022/10/27 09:32:34;;;;;;;12.18;3.10;;;20.40;99.90;;;;;;6309426;22;20029;-87
2022/10/27 09:35:23;;;;;;;9.93;2.30;;;20.90;99.90;;;;;;6308326;22;20022;-86
2022/10/27 09:38:16;;;;;;;9.00;3.00;;;21.40;99.90;;;;;;6309198;22;20023;-87
2022/10/27 09:41:08;;;;;;;11.23;3.30;;;22.50;99.90;;;;;;6291122;22;20078;-86
2022/10/27 09:43:59;;;;;;;8.88;2.20;;;23.50;99.90;;;;;;6307146;22;20019;-88
2022/10/27 09:46:54;;;;;;;10.55;2.58;;;24.50;99.90;;;;;;6286860;22;20023;-87
2022/10/27 09:49:44;;;;;;;6.95;2.90;;;24.50;99.90;;;;;;6305083;22;20039;-86
2022/10/27 09:52:36;;;;;;;9.05;2.47;;;24.50;99.90;;;;;;6286226;22;20051;-86
2022/10/27 09:55:50;;;;;;;14.25;2.33;;;24.90;99.90;;;;;;6286839;22;20076;-85
2022/10/27 09:58:45;;;;;;;15.07;2.90;;;25.90;99.90;;;;;;6287819;22;20023;-86
2022/10/27 10:01:40;;;;;;;12.50;2.60;;;25.40;98.70;;;;;;6307598;22;20280;-86
2022/10/27 10:04:31;;;;;;;11.63;3.10;;;26.00;91.90;;;;;;6285904;22;20031;-88
2022/10/27 10:07:42;;;;;;;7.18;2.53;;;25.60;81.20;;;;;;6284349;22;20089;-88
2022/10/27 10:10:33;;;;;;;8.60;2.83;;;25.50;85.40;;;;;;6307985;22;20098;-87
2022/10/27 10:13:21;;;;;;;12.40;2.70;;;25.70;65.40;;;;;;6284914;22;20104;-85
2022/10/27 10:16:10;;;;;;;7.53;2.38;;;25.90;60.30;;;;;;6286661;22;20417;-82
2022/10/27 10:19:04;;;;;;;9.13;2.35;;;25.50;58.70;;;;;;6285858;22;20054;-85
2022/10/27 10:21:59;;;;;;;14.38;2.90;;;25.80;51.70;;;;;;6306796;22;20121;-85
2022/10/27 10:24:47;;;;;;;9.60;2.40;;;26.30;49.60;;;;;;6286311;22;20357;-86
2022/10/27 10:27:34;;;;;;;10.98;2.05;;;27.00;41.40;;;;;;6284514;22;20092;-88
2022/10/27 10:30:25;;;;;;;8.98;2.05;;;27.40;37.40;;;;;;6309424;22;20037;-87
2022/10/27 10:33:16;;;;;;;9.45;2.58;;;28.00;30.20;;;;;;6285609;22;20031;-85
2022/10/27 10:36:25;;;;;;;6.72;1.92;;;28.80;26.20;;;;;;6308633;22;20038;-86
2022/10/27 10:39:27;;;;;;;6.40;2.10;;;29.40;20.30;;;;;;6308530;22;20023;-85
2022/10/27 10:42:18;;;;;;;9.98;2.60;;;28.90;5.60;;;;;;6284032;22;20064;-85
2022/10/27 10:45:18;;;;;;;6.90;2.05;;;29.00;2.70;;;;;;6307716;22;20068;-85
2022/10/27 10:48:13;;;;;;;9.48;2.35;;;29.60;1.00;;;;;;6286236;22;20029;-86
2022/10/27 10:51:00;;;;;;;6.03;2.15;;;30.30;1.00;;;;;;6284862;22;20126;-87
2022/10/27 10:53:51;;;;;;;9.52;2.33;;;29.70;1.00;;;;;;6306019;22;20027;-90
2022/10/27 10:56:41;;;;;;;7.90;1.85;;;28.50;1.00;;;;;;6288623;22;20023;-87
2022/10/27 10:59:33;;;;;;;12.90;2.15;;;29.20;1.00;;;;;;6288882;22;20050;-87
2022/10/27 11:02:33;;;;;;;12.73;2.20;;;29.50;1.00;;;;;;6287035;22;20029;-85
2022/10/27 11:05:33;;;;;;;10.30;2.70;;;30.60;1.00;;;;;;6307612;22;20096;-84
2022/10/27 11:08:23;;;;;;;9.93;2.17;;;30.70;1.00;;;;;;6309727;22;20023;-85
2022/10/27 11:11:21;;;;;;;7.43;2.20;;;30.40;1.00;;;;;;6309994;22;20085;-84
2022/10/27 11:14:13;;;;;;;9.23;2.30;;;30.70;1.00;;;;;;6307408;22;20023;-84
2022/10/27 11:17:03;;;;;;;8.18;1.90;;;30.40;1.00;;;;;;6308506;22;20100;-84
2022/10/27 11:19:51;;;;;;;7.82;2.45;;;30.80;1.00;;;;;;6309349;22;20090;-84
2022/10/27 11:22:43;;;;;;;5.88;1.80;;;32.00;1.00;;;;;;6309186;22;20090;-84
2022/10/27 11:25:33;;;;;;;6.45;2.40;;;32.20;1.00;;;;;;6308892;22;20038;-85
2022/10/27 11:29:06;;;;;;;9.20;1.83;;;31.90;1.00;;;;;;6312517;22;20027;-86
2022/10/27 11:32:09;;;;;;;5.15;1.85;;;33.00;1.00;;;;;;6155506;22;20092;-86
2022/10/27 11:35:23;;;;;;;8.95;2.25;;;32.60;1.00;;;;;;6307776;22;20069;-86
2022/10/27 11:38:27;;;;;;;11.82;2.78;;;31.60;1.00;;;;;;6307318;22;20033;-86
2022/10/27 11:41:39;;;;;;;8.43;2.35;;;31.40;1.00;;;;;;6288531;22;20469;-85
2022/10/27 11:44:31;;;;;;;7.72;1.70;;;30.20;1.00;;;;;;6308369;22;20023;-86
2022/10/27 11:47:31;;;;;;;6.05;2.17;;;30.60;1.00;;;;;;6309196;22;20027;-85
2022/10/27 11:50:36;;;;;;;8.15;1.85;;;31.30;1.00;;;;;;6285849;22;20080;-85
2022/10/27 11:53:26;;;;;;;7.50;1.90;;;31.80;1.00;;;;;;6308213;22;20362;-86
2022/10/27 11:56:26;;;;;;;7.40;1.83;;;32.50;1.00;;;;;;6287155;22;20027;-88
2022/10/27 11:59:19;;;;;;;14.68;2.33;;;33.10;1.00;;;;;;6310934;22;20027;-87
2022/10/27 12:02:31;;;;;;;9.80;2.30;;;32.40;1.00;;;;;;6288108;22;20031;-86
2022/10/27 12:05:24;;;;;;;;;;;30.90;1.00;;;;;;6308789;22;20361;-88
2022/10/27 12:08:28;;;;;;;8.57;1.75;;;31.20;1.00;;;;;;6285347;22;20008;-87
2022/10/27 12:11:29;;;;;;;5.57;2.00;;;32.00;1.00;;;;;;6307327;22;20033;-85
2022/10/27 12:14:33;;;;;;;8.95;2.50;;;32.30;1.00;;;;;;6286081;22;20027;-86
2022/10/27 12:17:36;;;;;;;7.22;2.10;;;33.40;1.00;;;;;;6286611;22;20019;-86
2022/10/27 12:20:34;;;;;;;11.07;2.35;;;33.50;1.00;;;;;;6286494;22;20051;-86
2022/10/27 12:23:28;;;;;;;7.72;1.77;;;33.30;1.00;;;;;;6288447;22;20091;-86
2022/10/27 12:26:21;;;;;;;9.38;2.47;;;33.20;1.00;;;;;;6307970;22;20076;-87
2022/10/27 12:29:10;;;;;;;4.32;2.05;;;32.80;1.00;;;;;;6287400;22;20638;-87
2022/10/27 12:32:02;;;;;;;8.77;1.98;;;32.10;1.00;;;;;;6277928;22;20020;-85
2022/10/27 12:35:04;;;;;;;5.93;1.67;;;31.80;1.00;;;;;;6257191;22;20099;-84
2022/10/27 12:38:01;;;;;;;7.53;2.20;;;31.50;1.00;;;;;;6255556;22;20419;-83
2022/10/27 12:41:12;;;;;;;7.15;1.98;;;31.10;1.00;;;;;;6277343;22;20023;-84
2022/10/27 12:44:17;;;;;;;5.53;1.88;;;31.50;1.00;;;;;;6278393;22;20031;-83
2022/10/27 12:47:11;;;;;;;5.07;2.00;;;31.80;1.00;;;;;;6278398;22;20039;-83
2022/10/27 12:50:04;;;;;;;7.55;1.75;;;32.10;1.00;;;;;;6278412;22;20317;-82
2022/10/27 12:53:22;;;;;;;7.90;1.98;;;32.20;1.00;;;;;;6254628;22;20023;-83
2022/10/27 12:56:09;;;;;;;8.20;2.00;;;32.40;1.00;;;;;;6255089;22;20035;-82
2022/10/27 12:59:17;;;;;;;9.02;2.22;;;32.20;1.00;;;;;;6277312;22;20121;-83
2022/10/27 13:02:10;;;;;;;8.48;1.85;;;31.80;1.00;;;;;;6256709;22;20033;-81
2022/10/27 13:05:10;;;;;;;9.20;1.88;;;31.20;1.00;;;;;;6255359;22;20162;-82
2022/10/27 13:08:15;;;;;;;10.68;2.38;;;31.70;1.00;;;;;;6278798;22;20024;-85
2022/10/27 13:11:15;;;;;;;6.50;1.90;;;30.90;1.00;;;;;;6276347;22;20031;-84
2022/10/27 13:14:27;;;;;;;10.50;1.67;;;31.00;1.00;;;;;;6276309;22;20119;-83
2022/10/27 13:17:49;;;;;;;7.85;2.00;;;30.90;1.00;;;;;;6276192;22;20023;-83
2022/10/27 13:20:56;;;;;;;6.80;2.10;;;30.40;1.00;;;;;;6257082;22;20081;-84
2022/10/27 13:23:58;;;;;;;7.97;1.80;;;30.20;1.00;;;;;;6256890;22;20020;-83
2022/10/27 13:26:59;;;;;;;;;;;30.10;1.00;;;;;;6257041;22;20380;-83
2022/10/27 13:30:07;;;;;;;10.30;2.25;;;29.70;1.00;;;;;;6283246;22;19915;-83
2022/10/27 13:32:55;;;;;;;5.65;2.25;;;29.70;1.00;;;;;;6307648;22;20033;-83
2022/10/27 13:35:43;;;;;;;8.73;2.25;;;30.00;1.00;;;;;;6283916;22;20034;-83
2022/10/27 13:38:33;;;;;;;6.15;1.60;;;29.80;1.00;;;;;;6306784;22;20023;-82
2022/10/27 13:42:06;;;;;;;5.80;1.65;;;29.90;1.00;;;;;;6284375;22;20377;-82
2022/10/27 13:44:54;;;;;;;7.72;2.20;;;30.10;1.00;;;;;;6306169;22;20023;-83
2022/10/27 13:47:41;;;;;;;11.35;2.25;;;29.70;1.00;;;;;;6282170;22;20030;-81
2022/10/27 13:50:34;;;;;;;12.50;2.00;;;29.40;1.00;;;;;;6305929;22;20108;-82
2022/10/27 13:53:22;;;;;;;5.50;1.83;;;29.40;1.00;;;;;;6307735;22;20432;-81
2022/10/27 13:56:10;;;;;;;8.18;2.10;;;29.30;1.00;;;;;;6285796;22;20030;-83
2022/10/27 13:59:22;;;;;;;8.43;1.83;;;29.30;1.00;;;;;;6285532;22;20148;-83
2022/10/27 14:02:31;;;;;;;5.85;1.75;;;29.20;1.00;;;;;;6306417;22;20023;-83
2022/10/27 14:05:47;;;;;;;8.52;1.70;;;29.40;1.00;;;;;;6283902;22;20037;-87
2022/10/27 14:08:50;;;;;;;6.47;2.05;;;29.90;1.00;;;;;;6284208;22;20122;-85
2022/10/27 14:11:46;;;;;;;7.32;2.20;;;29.60;1.00;;;;;;6265202;22;20024;-84
2022/10/27 14:14:39;;;;;;;7.63;1.90;;;29.40;1.00;;;;;;6283925;22;20377;-85
2022/10/27 14:17:28;;;;;;;6.82;2.00;;;29.40;1.00;;;;;;6307183;22;20497;-85
2022/10/27 14:20:18;;;;;;;3.47;1.60;;;29.50;1.00;;;;;;6307161;22;20110;-84
2022/10/27 14:23:13;;;;;;;5.82;1.70;;;28.90;1.00;;;;;;6306680;22;20035;-85
2022/10/27 14:26:32;;;;;;;9.63;2.53;;;28.40;1.00;;;;;;6307981;22;20019;-87
2022/10/27 14:29:22;;;;;;;8.80;1.92;;;28.40;1.00;;;;;;6307965;22;20081;-86
2022/10/27 14:32:23;;;;;;;12.35;2.17;;;28.40;1.00;;;;;;6284401;22;20023;-85
2022/10/27 14:35:22;;;;;;;21.02;2.10;;;28.70;1.00;;;;;;6284829;22;20023;-84
2022/10/27 14:38:28;;;;;;;14.25;5.28;;;28.50;1.00;;;;;;6307796;22;20024;-84
2022/10/27 14:41:28;;;;;;;32.13;2.78;;;28.60;1.00;;;;;;6285788;22;20098;-85
2022/10/27 14:44:28;;;;;;;13.77;1.95;;;28.70;1.00;;;;;;6283518;22;20071;-85
2022/10/27 14:47:19;;;;;;;9.38;1.83;;;28.30;1.00;;;;;;6305577;22;20027;-85
2022/10/27 14:50:24;;;;;;;18.75;2.30;;;28.10;1.00;;;;;;6307254;22;20038;-83
2022/10/27 14:53:35;;;;;;;13.73;2.28;;;28.00;1.00;;;;;;6288250;22;20023;-83
2022/10/27 14:56:30;;;;;;;19.02;2.60;;;27.60;1.00;;;;;;6309631;22;20112;-83
2022/10/27 14:59:28;;;;;;;14.50;2.20;;;26.90;1.00;;;;;;6309192;22;20031;-84